Time;durP1;ratioP1;P1;durP2;ratioP2;P2;SDS_P1;SDS_P2;PMS_P1;PMS_P2;Temp;Humidity;BMP_temperature;BMP_pressure;BME280_temperature;BME280_humidity;BME280_pressure;Samples;Min_cycle;Max_cycle;Signal;HPM_P1;HPM_P2
2023/12/21 00:01:20;;;;;;;12.20;7.60;;;;;;;8.45;100.00;100576.06;5067608;28;20052;-72
2023/12/21 00:03:48;;;;;;;14.98;7.78;;;;;;;8.46;100.00;100590.94;5081194;28;20066;-72
2023/12/21 00:06:15;;;;;;;14.60;7.35;;;;;;;8.48;100.00;100572.56;5065236;28;20041;-72
2023/12/21 00:08:42;;;;;;;12.93;7.28;;;;;;;8.49;100.00;100569.03;5065360;28;20098;-72
2023/12/21 00:11:09;;;;;;;13.27;7.40;;;;;;;8.49;100.00;100561.16;5063794;28;20040;-72
2023/12/21 00:13:36;;;;;;;12.73;6.55;;;;;;;8.51;100.00;100546.19;5067117;28;20101;-72
2023/12/21 00:16:04;;;;;;;11.80;7.03;;;;;;;8.55;100.00;100537.34;5064253;28;20056;-72
2023/12/21 00:18:31;;;;;;;13.10;6.53;;;;;;;8.55;100.00;100538.19;5079793;28;20077;-73
2023/12/21 00:20:58;;;;;;;16.30;7.20;;;;;;;8.57;100.00;100534.66;5077109;28;20047;-72
2023/12/21 00:23:25;;;;;;;12.45;6.95;;;;;;;8.57;100.00;100539.91;5057319;28;20048;-74
2023/12/21 00:25:53;;;;;;;12.82;7.40;;;;;;;8.57;100.00;100525.03;5066395;28;20508;-74
2023/12/21 00:28:20;;;;;;;15.07;7.47;;;;;;;8.57;100.00;100522.41;5065627;28;20052;-74
2023/12/21 00:30:47;;;;;;;15.48;7.13;;;;;;;8.55;100.00;100526.81;5067607;28;20048;-73
2023/12/21 00:33:14;;;;;;;12.60;6.85;;;;;;;8.57;100.00;100532.91;5062009;28;20045;-74
2023/12/21 00:35:42;;;;;;;13.82;7.47;;;;;;;8.54;100.00;100525.97;5066250;28;20052;-74
2023/12/21 00:38:09;;;;;;;11.35;7.07;;;;;;;8.54;100.00;100525.97;5082147;28;20058;-74
2023/12/21 00:40:36;;;;;;;14.32;7.38;;;;;;;8.55;100.00;100519.78;5065723;28;20812;-74
2023/12/21 00:43:03;;;;;;;14.73;7.72;;;;;;;8.56;100.00;100510.16;5069229;28;20565;-74
2023/12/21 00:45:30;;;;;;;13.70;7.85;;;;;;;8.58;100.00;100504.84;5085984;28;20118;-74
2023/12/21 00:47:57;;;;;;;12.20;7.32;;;;;;;8.58;100.00;100494.34;5070029;28;20569;-74
2023/12/21 00:50:24;;;;;;;12.30;8.00;;;;;;;8.54;100.00;100491.81;5067418;28;20052;-72
2023/12/21 00:52:52;;;;;;;12.25;8.05;;;;;;;8.54;100.00;100493.56;5085176;28;20056;-72
2023/12/21 00:55:19;;;;;;;12.35;7.97;;;;;;;8.53;100.00;100482.22;5067681;28;20036;-73
2023/12/21 00:57:46;;;;;;;14.52;8.38;;;;;;;8.53;100.00;100482.22;5055527;28;20076;-72
2023/12/21 01:00:14;;;;;;;16.52;8.38;;;;;;;8.56;100.00;100473.38;5066149;28;20048;-72
2023/12/21 01:02:41;;;;;;;12.23;7.47;;;;;;;8.58;100.00;100473.31;5055859;28;20041;-72
2023/12/21 01:05:08;;;;;;;15.95;7.70;;;;;;;8.57;100.00;100471.59;5068436;28;20040;-72
2023/12/21 01:07:35;;;;;;;13.35;8.25;;;;;;;8.58;100.00;100460.19;5068042;28;20216;-72
2023/12/21 01:10:04;;;;;;;16.77;8.20;;;;;;;8.57;100.00;100459.34;5083762;28;20448;-73
2023/12/21 01:12:32;;;;;;;13.32;7.50;;;;;;;8.58;100.00;100465.44;5070060;28;20691;-71
2023/12/21 01:15:00;;;;;;;16.90;8.15;;;;;;;8.55;100.00;100451.47;5069742;28;20044;-72
2023/12/21 01:17:28;;;;;;;22.10;8.40;;;;;;;8.55;100.00;100440.97;5085382;28;20049;-73
2023/12/21 01:19:55;;;;;;;15.88;7.82;;;;;;;8.55;100.00;100432.25;5060014;28;20048;-73
2023/12/21 01:22:22;;;;;;;15.55;7.68;;;;;;;8.58;100.00;100426.03;5057630;28;20615;-72
2023/12/21 01:24:49;;;;;;;16.15;7.93;;;;;;;8.54;100.00;100431.41;5068240;28;20048;-72
2023/12/21 01:27:17;;;;;;;16.83;7.60;;;;;;;8.54;100.00;100430.50;5067542;28;20040;-72
2023/12/21 01:29:58;;;;;;;16.08;7.75;;;;;;;8.52;100.00;100437.56;5081816;28;20214;-72
2023/12/21 01:32:25;;;;;;;14.90;7.47;;;;;;;8.54;100.00;100441.03;5067272;28;20065;-73
2023/12/21 01:34:52;;;;;;;13.20;7.32;;;;;;;8.51;100.00;100420.97;5068403;28;20056;-72
2023/12/21 01:37:19;;;;;;;17.10;7.55;;;;;;;8.50;100.00;100421.88;5080872;28;20064;-73
2023/12/21 01:39:46;;;;;;;12.88;7.43;;;;;;;8.52;100.00;100408.66;5066510;28;20072;-73
2023/12/21 01:42:14;;;;;;;14.15;7.30;;;;;;;8.52;100.00;100419.19;5068201;28;20154;-75
2023/12/21 01:44:41;;;;;;;16.90;7.50;;;;;;;8.53;100.00;100397.25;5069390;28;20562;-74
2023/12/21 01:47:10;;;;;;;15.15;8.57;;;;;;;8.53;100.00;100413.03;5069211;28;20090;-73
2023/12/21 01:49:38;;;;;;;15.05;8.95;;;;;;;8.53;100.00;100410.41;5084720;28;20082;-73
2023/12/21 01:52:07;;;;;;;14.30;8.30;;;;;;;8.53;100.00;100410.41;5066949;28;20436;-72
2023/12/21 01:54:36;;;;;;;14.18;8.20;;;;;;;8.53;100.00;100394.63;5068929;28;20044;-73
2023/12/21 01:57:03;;;;;;;18.38;9.00;;;;;;;8.54;100.00;100383.22;5068958;28;20056;-73
2023/12/21 01:59:31;;;;;;;14.43;8.75;;;;;;;8.57;100.00;100388.41;5082585;28;20101;-73
2023/12/21 02:02:01;;;;;;;13.85;8.43;;;;;;;8.58;100.00;100391.88;5064018;28;20384;-73
2023/12/21 02:04:29;;;;;;;16.67;8.68;;;;;;;8.55;100.00;100387.56;5068441;28;20049;-73
2023/12/21 02:06:56;;;;;;;14.35;8.88;;;;;;;8.57;100.00;100383.13;5084510;28;20048;-73
2023/12/21 02:09:23;;;;;;;15.65;8.60;;;;;;;8.62;100.00;100401.41;5066647;28;20072;-73
2023/12/21 02:11:51;;;;;;;15.18;8.88;;;;;;;8.61;100.00;100404.94;5067796;28;20037;-73
2023/12/21 02:14:18;;;;;;;14.73;9.00;;;;;;;8.60;100.00;100404.06;5067851;28;20040;-73
2023/12/21 02:17:11;;;;;;;13.25;7.72;;;;;;;8.62;100.00;100407.50;5065804;28;20068;-73
2023/12/21 02:19:39;;;;;;;14.27;8.23;;;;;;;8.61;100.00;100405.78;5079950;28;20063;-74
2023/12/21 02:22:09;;;;;;;15.45;8.68;;;;;;;8.62;100.00;100393.50;5067757;28;20408;-75
2023/12/21 02:24:36;;;;;;;13.95;8.30;;;;;;;8.62;100.00;100383.84;5061512;28;20045;-74
2023/12/21 02:27:04;;;;;;;14.55;8.20;;;;;;;8.61;100.00;100370.78;5083389;28;20044;-74
2023/12/21 02:29:31;;;;;;;15.90;8.55;;;;;;;8.60;100.00;100362.00;5067053;28;20075;-73
2023/12/21 02:31:59;;;;;;;12.63;7.78;;;;;;;8.61;100.00;100353.22;5083149;28;20083;-74
2023/12/21 02:34:26;;;;;;;17.48;8.48;;;;;;;8.60;100.00;100355.91;5068902;28;20123;-74
2023/12/21 02:36:53;;;;;;;14.80;7.78;;;;;;;8.60;100.00;100351.50;5072670;28;20683;-74
2023/12/21 02:39:20;;;;;;;15.00;7.97;;;;;;;8.59;100.00;100355.06;5062223;28;20052;-72
2023/12/21 02:41:51;;;;;;;12.55;8.45;;;;;;;8.60;100.00;100329.63;5100903;28;20037;-71
2023/12/21 02:44:18;;;;;;;16.42;8.32;;;;;;;8.60;100.00;100332.25;5068246;28;20036;-71
2023/12/21 02:46:46;;;;;;;13.65;8.80;;;;;;;8.58;100.00;100331.44;5058182;28;20535;-71
2023/12/21 02:49:13;;;;;;;12.90;8.57;;;;;;;8.59;100.00;100326.16;5067719;28;20420;-71
2023/12/21 02:51:40;;;;;;;17.52;9.40;;;;;;;8.58;100.00;100321.81;5067114;28;20043;-71
2023/12/21 02:54:07;;;;;;;12.48;8.43;;;;;;;8.60;100.00;100321.75;5059813;28;20040;-71
2023/12/21 02:56:34;;;;;;;14.85;8.43;;;;;;;8.60;100.00;100316.50;5065679;28;20040;-71
2023/12/21 02:59:01;;;;;;;13.20;8.43;;;;;;;8.59;100.00;100310.38;5083491;28;20544;-71
2023/12/21 03:01:28;;;;;;;16.80;8.90;;;;;;;8.58;100.00;100311.28;5053002;28;20128;-71
2023/12/21 03:03:55;;;;;;;19.27;8.95;;;;;;;8.58;100.00;100318.31;5065194;28;20064;-71
2023/12/21 03:06:23;;;;;;;14.15;8.98;;;;;;;8.56;100.00;100318.34;5082605;28;20098;-72
2023/12/21 03:08:50;;;;;;;15.90;8.63;;;;;;;8.58;100.00;100308.66;5054754;28;20132;-71
2023/12/21 03:11:17;;;;;;;18.20;9.30;;;;;;;8.58;100.00;100298.16;5067270;28;20075;-71
2023/12/21 03:13:44;;;;;;;16.02;9.63;;;;;;;8.55;100.00;100293.00;5067746;28;20124;-71
2023/12/21 03:16:12;;;;;;;15.65;10.13;;;;;;;8.54;100.00;100283.38;5072461;28;20052;-73
2023/12/21 03:18:39;;;;;;;16.92;9.85;;;;;;;8.54;100.00;100262.38;5066184;28;20580;-73
2023/12/21 03:21:06;;;;;;;17.60;9.82;;;;;;;8.58;100.00;100247.34;5068484;28;20423;-75
2023/12/21 03:23:35;;;;;;;16.42;10.35;;;;;;;8.54;100.00;100236.09;5065821;28;20133;-76
2023/12/21 03:26:02;;;;;;;14.73;10.10;;;;;;;8.53;100.00;100227.38;5054186;28;20108;-75
2023/12/21 03:28:29;;;;;;;17.83;10.27;;;;;;;8.54;100.00;100220.34;5099326;28;20045;-74
2023/12/21 03:30:56;;;;;;;15.50;10.20;;;;;;;8.58;100.00;100194.81;5065295;28;20072;-74
2023/12/21 03:33:23;;;;;;;17.25;9.68;;;;;;;8.55;100.00;100203.66;5066340;28;20044;-74
2023/12/21 03:35:51;;;;;;;17.48;9.88;;;;;;;8.54;100.00;100213.31;5058390;28;20133;-74
2023/12/21 03:38:18;;;;;;;17.58;9.80;;;;;;;8.55;100.00;100201.03;5077860;28;20044;-74
2023/12/21 03:40:45;;;;;;;16.52;9.48;;;;;;;8.58;100.00;100200.06;5081788;28;20524;-74
2023/12/21 03:43:12;;;;;;;14.45;9.48;;;;;;;8.57;100.00;100198.34;5066461;28;20043;-74
2023/12/21 03:45:40;;;;;;;15.52;9.40;;;;;;;8.56;100.00;100194.88;5082319;28;20581;-74
2023/12/21 03:48:09;;;;;;;15.35;8.80;;;;;;;8.57;100.00;100183.47;5081283;28;20123;-74
2023/12/21 03:50:36;;;;;;;16.35;9.25;;;;;;;8.58;100.00;100168.53;5063350;28;20131;-74
2023/12/21 03:53:05;;;;;;;18.13;9.60;;;;;;;8.59;100.00;100170.25;5057581;28;20064;-73
2023/12/21 03:55:32;;;;;;;16.15;9.77;;;;;;;8.59;100.00;100178.13;5066705;28;20060;-73
2023/12/21 03:58:00;;;;;;;15.70;8.98;;;;;;;8.58;100.00;100168.53;5067259;28;20139;-75
2023/12/21 04:00:27;;;;;;;15.52;8.68;;;;;;;8.59;100.00;100176.38;5080892;28;20112;-75
2023/12/21 04:02:54;;;;;;;13.10;8.15;;;;;;;8.61;100.00;100158.78;5054728;28;20061;-75
2023/12/21 04:05:21;;;;;;;13.40;8.65;;;;;;;8.62;100.00;100157.03;5059436;28;20045;-73
2023/12/21 04:07:48;;;;;;;14.10;8.35;;;;;;;8.63;100.00;100153.50;5046363;28;20098;-75
2023/12/21 04:10:15;;;;;;;19.08;9.07;;;;;;;8.62;100.00;100168.38;5053517;28;20045;-74
2023/12/21 04:12:43;;;;;;;18.25;8.60;;;;;;;8.62;100.00;100165.75;5080519;28;20040;-74
2023/12/21 04:15:11;;;;;;;18.35;8.40;;;;;;;8.62;100.00;100160.50;5071857;28;20044;-74
2023/12/21 04:17:38;;;;;;;21.77;8.85;;;;;;;8.62;100.00;100144.75;5068176;28;20415;-74
2023/12/21 04:20:07;;;;;;;15.05;8.02;;;;;;;8.64;100.00;100129.78;5071042;28;20044;-74
2023/12/21 04:22:34;;;;;;;13.73;8.10;;;;;;;8.63;100.00;100111.47;5086000;28;20105;-74
2023/12/21 04:25:01;;;;;;;16.33;7.97;;;;;;;8.63;100.00;100108.84;5065214;28;20082;-74
2023/12/21 04:27:29;;;;;;;18.52;7.97;;;;;;;8.64;100.00;100103.50;5068999;28;20032;-73
2023/12/21 04:29:56;;;;;;;17.90;8.00;;;;;;;8.65;100.00;100096.47;5070411;28;20040;-73
2023/12/21 04:32:23;;;;;;;17.83;8.07;;;;;;;8.64;100.00;100108.75;5076063;28;20052;-73
2023/12/21 04:34:50;;;;;;;14.07;7.25;;;;;;;8.67;100.00;100089.41;5093603;28;20044;-74
2023/12/21 04:37:17;;;;;;;14.43;7.40;;;;;;;8.66;100.00;100078.03;5069224;28;20048;-73
2023/12/21 04:39:44;;;;;;;13.45;6.72;;;;;;;8.66;100.00;100066.66;5070397;28;20109;-73
2023/12/21 04:42:11;;;;;;;15.95;7.40;;;;;;;8.70;100.00;100057.78;5069396;28;20079;-73
2023/12/21 04:44:38;;;;;;;18.30;7.25;;;;;;;8.72;100.00;100048.06;5069258;28;20040;-73
2023/12/21 04:47:08;;;;;;;16.35;6.63;;;;;;;8.73;100.00;100055.03;5053285;28;20048;-72
2023/12/21 04:49:48;;;;;;;18.33;7.40;;;;;;;8.75;100.00;100055.81;5069552;28;20127;-72
2023/12/21 04:52:15;;;;;;;16.27;6.80;;;;;;;8.76;100.00;100033.06;5070607;28;20040;-72
2023/12/21 04:54:42;;;;;;;19.35;7.80;;;;;;;8.77;100.00;100030.34;5069699;28;20531;-72
2023/12/21 04:57:09;;;;;;;20.58;7.30;;;;;;;8.80;100.00;100018.91;5066769;28;20119;-72
2023/12/21 04:59:41;;;;;;;17.85;7.32;;;;;;;8.82;100.00;100009.16;5084657;28;20119;-72
2023/12/21 05:02:08;;;;;;;17.42;7.00;;;;;;;8.83;100.00;100001.25;5065961;28;20575;-73
2023/12/21 05:04:36;;;;;;;21.88;8.18;;;;;;;8.84;100.00;99983.69;5068406;28;20053;-71
2023/12/21 05:07:08;;;;;;;18.65;8.20;;;;;;;8.88;100.00;99987.06;5086974;28;20094;-72
2023/12/21 05:09:37;;;;;;;20.98;8.40;;;;;;;8.88;100.00;100000.19;5069331;28;20075;-72
2023/12/21 05:12:04;;;;;;;26.08;9.00;;;;;;;8.88;100.00;99992.31;5068790;28;20032;-73
2023/12/21 05:14:32;;;;;;;21.15;8.52;;;;;;;8.88;100.00;99998.44;5085626;28;20106;-72
2023/12/21 05:16:59;;;;;;;19.98;8.43;;;;;;;8.87;100.00;99986.22;5083856;28;21274;-72
2023/12/21 05:19:26;;;;;;;21.92;8.45;;;;;;;8.89;100.00;99986.16;5053433;28;20044;-73
2023/12/21 05:21:53;;;;;;;21.00;8.90;;;;;;;8.90;100.00;99970.34;5068156;28;20551;-72
2023/12/21 05:24:21;;;;;;;22.27;9.35;;;;;;;8.91;100.00;99979.91;5083395;28;20528;-74
2023/12/21 05:26:48;;;;;;;22.15;9.07;;;;;;;8.93;100.00;99980.72;5061758;28;20139;-74
2023/12/21 05:29:15;;;;;;;15.77;8.52;;;;;;;8.96;100.00;99979.75;5084777;28;20113;-74
2023/12/21 05:31:42;;;;;;;21.30;8.80;;;;;;;8.98;100.00;99975.28;5053618;28;20123;-71
2023/12/21 05:34:10;;;;;;;21.35;7.93;;;;;;;9.00;100.00;99965.56;5061250;28;20641;-72
2023/12/21 05:36:37;;;;;;;18.70;7.95;;;;;;;9.03;100.00;99960.22;5061769;28;20127;-72
2023/12/21 05:39:04;;;;;;;19.23;7.65;;;;;;;9.07;100.00;99963.56;5067502;28;20115;-73
2023/12/21 05:41:44;;;;;;;19.73;8.35;;;;;;;9.08;100.00;99955.63;5082667;28;20045;-73
2023/12/21 05:44:12;;;;;;;20.20;7.43;;;;;;;9.12;100.00;99964.25;5068408;28;20086;-72
2023/12/21 05:46:40;;;;;;;20.17;7.53;;;;;;;9.12;100.00;99958.97;5065718;28;20041;-73
2023/12/21 05:49:07;;;;;;;15.55;6.72;;;;;;;9.13;100.00;99965.97;5080264;28;20041;-72
2023/12/21 05:51:34;;;;;;;19.17;7.57;;;;;;;9.11;100.00;99957.25;5066666;28;20128;-71
2023/12/21 05:54:03;;;;;;;15.18;6.72;;;;;;;9.14;100.00;99954.53;5062641;28;20040;-70
2023/12/21 05:56:30;;;;;;;18.23;6.18;;;;;;;9.18;100.00;99953.50;5061914;28;20036;-70
2023/12/21 05:58:59;;;;;;;20.08;7.10;;;;;;;9.25;100.00;99954.13;5068043;28;20048;-69
2023/12/21 06:01:26;;;;;;;13.18;5.25;;;;;;;9.33;100.00;99955.53;5067198;28;20049;-70
2023/12/21 06:03:55;;;;;;;14.38;5.32;;;;;;;9.40;100.00;99960.56;5071705;28;20047;-70
2023/12/21 06:06:23;;;;;;;9.98;4.50;;;;;;;9.47;100.00;99949.72;5069434;28;20624;-72
2023/12/21 06:08:50;;;;;;;14.68;5.68;;;;;;;9.51;100.00;99954.88;5081178;28;20394;-70
2023/12/21 06:11:17;;;;;;;15.40;4.68;;;;;;;9.55;100.00;99932.78;5099091;28;20040;-70
2023/12/21 06:13:44;;;;;;;12.98;4.57;;;;;;;9.58;100.00;99933.50;5050773;28;20040;-70
2023/12/21 06:16:12;;;;;;;16.35;4.43;;;;;;;9.59;100.00;99948.38;5068048;28;20048;-70
2023/12/21 06:18:40;;;;;;;14.15;3.95;;;;;;;9.63;100.00;99943.84;5063406;28;20540;-69
2023/12/21 06:21:07;;;;;;;11.00;3.22;;;;;;;9.68;100.00;99919.97;5084448;28;20500;-70
2023/12/21 06:23:34;;;;;;;10.30;3.63;;;;;;;9.69;100.00;99919.06;5064665;28;20064;-70
2023/12/21 06:26:01;;;;;;;11.90;3.67;;;;;;;9.70;100.00;99918.97;5048534;28;20127;-70
2023/12/21 06:28:28;;;;;;;9.15;3.10;;;;;;;9.72;100.00;99898.72;5053834;28;20093;-70
2023/12/21 06:30:55;;;;;;;9.60;3.28;;;;;;;9.72;100.00;99898.72;5063809;28;20150;-74
2023/12/21 06:33:23;;;;;;;13.52;3.38;;;;;;;9.63;100.00;99893.84;5072317;28;20041;-74
2023/12/21 06:35:50;;;;;;;10.30;3.40;;;;;;;9.54;100.00;99896.88;5055589;28;20053;-76
2023/12/21 06:38:17;;;;;;;14.30;3.50;;;;;;;9.45;100.00;99898.97;5059488;28;20044;-74
2023/12/21 06:40:44;;;;;;;19.58;7.63;;;;;;;9.37;100.00;99897.53;5065011;28;20067;-72
2023/12/21 06:43:13;;;;;;;10.50;3.20;;;;;;;9.30;100.00;99910.94;5053318;28;20128;-72
2023/12/21 06:45:40;;;;;;;13.25;3.10;;;;;;;9.24;100.00;99905.91;5053328;28;20258;-72
2023/12/21 06:48:07;;;;;;;13.23;3.47;;;;;;;9.19;100.00;99894.75;5056833;28;20717;-72
2023/12/21 06:50:34;;;;;;;12.60;3.63;;;;;;;9.15;100.00;99886.13;5087758;28;20044;-72
2023/12/21 06:53:02;;;;;;;9.20;3.22;;;;;;;9.13;100.00;99893.22;5064949;28;20025;-72
2023/12/21 06:55:29;;;;;;;11.13;3.58;;;;;;;9.13;100.00;99893.22;5062620;28;20127;-72
2023/12/21 06:57:56;;;;;;;10.40;3.40;;;;;;;9.09;100.00;99878.47;5076026;28;20462;-72
2023/12/21 07:00:24;;;;;;;9.52;3.20;;;;;;;9.10;100.00;99876.69;5067480;28;20044;-72
2023/12/21 07:02:51;;;;;;;8.70;3.38;;;;;;;9.11;100.00;99852.09;5062213;28;20044;-72
2023/12/21 07:05:18;;;;;;;10.63;3.67;;;;;;;9.12;100.00;99854.69;5068189;28;20076;-72
2023/12/21 07:07:45;;;;;;;11.48;3.78;;;;;;;9.13;100.00;99848.50;5068213;28;20553;-72
2023/12/21 07:10:12;;;;;;;9.30;3.60;;;;;;;9.15;100.00;99848.44;5066012;28;20108;-72
2023/12/21 07:12:39;;;;;;;6.80;3.40;;;;;;;9.16;100.00;99816.81;5066739;28;20439;-72
2023/12/21 07:15:07;;;;;;;8.55;3.22;;;;;;;9.17;100.00;99818.53;5068519;28;20040;-72
2023/12/21 07:17:34;;;;;;;7.95;3.60;;;;;;;9.16;100.00;99815.97;5055193;28;20037;-72
2023/12/21 07:20:01;;;;;;;8.45;3.90;;;;;;;9.14;100.00;99808.16;5082487;28;20055;-72
2023/12/21 07:22:28;;;;;;;10.02;3.90;;;;;;;9.13;100.00;99810.81;5066791;28;20539;-73
2023/12/21 07:24:56;;;;;;;10.20;4.13;;;;;;;9.16;100.00;99797.56;5066116;28;20056;-72
2023/12/21 07:27:23;;;;;;;12.65;4.63;;;;;;;9.15;100.00;99790.59;5065782;28;20048;-72
2023/12/21 07:29:50;;;;;;;7.68;4.05;;;;;;;9.15;100.00;99777.44;5069079;28;20336;-72
2023/12/21 07:32:17;;;;;;;12.07;5.18;;;;;;;9.16;100.00;99773.88;5083114;28;20136;-72
2023/12/21 07:34:44;;;;;;;9.68;4.47;;;;;;;9.20;100.00;99772.00;5064711;28;20086;-72
2023/12/21 07:37:16;;;;;;;14.38;4.70;;;;;;;9.18;100.00;99769.44;5066338;28;20045;-72
2023/12/21 07:39:43;;;;;;;10.95;4.70;;;;;;;9.20;100.00;99775.50;5063602;28;20036;-72
2023/12/21 07:42:11;;;;;;;14.63;5.05;;;;;;;9.20;100.00;99780.75;5061458;28;20044;-72
2023/12/21 07:44:38;;;;;;;11.82;4.53;;;;;;;9.21;100.00;99774.53;5061886;28;20082;-72
2023/12/21 07:47:05;;;;;;;11.68;4.78;;;;;;;9.20;100.00;99772.84;5059414;28;20570;-72
2023/12/21 07:49:32;;;;;;;11.52;4.80;;;;;;;9.19;100.00;99765.00;5079586;28;20132;-73
2023/12/21 07:51:59;;;;;;;12.40;4.43;;;;;;;9.19;100.00;99768.50;5048716;28;20163;-73
2023/12/21 07:54:26;;;;;;;13.57;4.95;;;;;;;9.21;100.00;99765.81;5064610;28;20043;-74
2023/12/21 07:56:53;;;;;;;10.50;4.78;;;;;;;9.19;100.00;99752.72;5066131;28;20496;-74
2023/12/21 07:59:21;;;;;;;14.50;4.88;;;;;;;9.18;100.00;99743.13;5068561;28;20056;-74
2023/12/21 08:01:48;;;;;;;14.95;4.55;;;;;;;9.19;100.00;99734.31;5076993;28;20036;-74
2023/12/21 08:04:16;;;;;;;8.77;4.05;;;;;;;9.23;100.00;99740.31;5067072;28;20482;-74
2023/12/21 08:06:43;;;;;;;10.02;4.40;;;;;;;9.19;100.00;99736.97;5067350;28;20121;-74
2023/12/21 08:09:10;;;;;;;14.95;4.40;;;;;;;9.23;100.00;99722.75;5070185;28;20837;-73
2023/12/21 08:11:37;;;;;;;12.75;4.07;;;;;;;9.21;100.00;99721.09;5066497;28;20036;-74
2023/12/21 08:14:05;;;;;;;11.48;4.32;;;;;;;9.24;100.00;99727.09;5068807;28;20043;-73
2023/12/21 08:16:32;;;;;;;11.02;4.25;;;;;;;9.26;100.00;99730.50;5068723;28;20040;-73
2023/12/21 08:18:59;;;;;;;9.95;3.83;;;;;;;9.24;100.00;99713.94;5049963;28;20110;-74
2023/12/21 08:21:26;;;;;;;11.02;3.97;;;;;;;9.25;100.00;99706.91;5069296;28;20578;-73
2023/12/21 08:23:54;;;;;;;13.57;4.72;;;;;;;9.26;100.00;99717.34;5065531;28;20029;-72
2023/12/21 08:26:21;;;;;;;10.77;4.20;;;;;;;9.26;100.00;99708.63;5064945;28;20329;-72
2023/12/21 08:28:48;;;;;;;12.48;3.85;;;;;;;9.26;100.00;99698.13;5082881;28;20048;-72
2023/12/21 08:31:27;;;;;;;9.73;3.60;;;;;;;9.27;100.00;99702.41;5103117;28;20105;-73
2023/12/21 08:33:54;;;;;;;7.70;3.50;;;;;;;9.27;100.00;99702.41;5079311;28;20035;-73
2023/12/21 08:36:22;;;;;;;8.25;3.17;;;;;;;9.28;100.00;99715.53;5075358;28;20053;-73
2023/12/21 08:38:49;;;;;;;7.95;2.83;;;;;;;9.27;100.00;99710.31;5058628;28;20063;-73
2023/12/21 08:41:17;;;;;;;6.05;3.17;;;;;;;9.25;100.00;99685.88;5073433;28;20586;-75
2023/12/21 08:43:45;;;;;;;8.73;3.55;;;;;;;9.26;100.00;99698.13;5069170;28;20040;-73
2023/12/21 08:46:13;;;;;;;6.20;3.00;;;;;;;9.25;100.00;99691.97;5079394;28;20050;-73
2023/12/21 08:48:40;;;;;;;8.10;2.90;;;;;;;9.24;100.00;99679.75;5063464;28;20099;-73
2023/12/21 08:51:07;;;;;;;8.10;3.08;;;;;;;9.23;100.00;99670.16;5055140;28;20098;-73
2023/12/21 08:53:34;;;;;;;8.55;2.70;;;;;;;9.26;100.00;99664.75;5086985;28;20059;-72
2023/12/21 08:56:03;;;;;;;7.70;2.70;;;;;;;9.23;100.00;99662.25;5064750;28;20049;-72
2023/12/21 08:58:30;;;;;;;4.88;2.13;;;;;;;9.25;100.00;99660.41;5080706;28;20039;-73
2023/12/21 09:00:58;;;;;;;7.80;3.65;;;;;;;9.25;100.00;99654.31;5071067;28;20054;-73
2023/12/21 09:03:26;;;;;;;6.13;2.58;;;;;;;9.27;100.00;99652.44;5063460;28;20048;-73
2023/12/21 09:05:53;;;;;;;5.13;2.10;;;;;;;9.28;100.00;99665.56;5052201;28;20049;-73
2023/12/21 09:08:20;;;;;;;9.20;5.50;;;;;;;9.29;100.00;99650.63;5083125;28;20523;-73
2023/12/21 09:10:47;;;;;;;4.63;2.20;;;;;;;9.27;100.00;99650.69;5081901;28;20437;-73
2023/12/21 09:13:15;;;;;;;6.50;3.05;;;;;;;9.28;100.00;99651.53;5054530;28;20033;-73
2023/12/21 09:15:42;;;;;;;10.02;8.27;;;;;;;9.28;100.00;99641.88;5085529;28;20320;-73
2023/12/21 09:18:12;;;;;;;5.22;2.63;;;;;;;9.32;100.00;99642.59;5069638;28;20048;-72
2023/12/21 09:20:39;;;;;;;6.50;2.13;;;;;;;9.35;100.00;99652.13;5069814;28;20047;-72
2023/12/21 09:23:06;;;;;;;4.75;1.88;;;;;;;9.36;100.00;99627.53;5066529;28;20040;-72
2023/12/21 09:25:33;;;;;;;6.15;2.00;;;;;;;9.38;100.00;99633.59;5067696;28;20044;-74
2023/12/21 09:28:02;;;;;;;5.45;1.80;;;;;;;9.41;100.00;99618.50;5062930;28;20056;-72
2023/12/21 09:30:30;;;;;;;9.52;1.83;;;;;;;9.43;100.00;99621.94;5050923;28;20041;-72
2023/12/21 09:33:00;;;;;;;7.18;1.90;;;;;;;9.45;100.00;99625.34;5070152;28;20040;-72
2023/12/21 09:35:28;;;;;;;6.65;1.75;;;;;;;9.46;100.00;99610.41;5052200;28;20529;-72
2023/12/21 09:37:55;;;;;;;5.63;1.60;;;;;;;9.48;100.00;99613.84;5068555;28;20058;-72
2023/12/21 09:40:26;;;;;;;6.00;1.73;;;;;;;9.50;100.00;99617.25;5070158;28;20040;-72
2023/12/21 09:42:57;;;;;;;6.95;2.25;;;;;;;9.50;100.00;99597.97;5059541;28;20049;-72
2023/12/21 09:45:40;;;;;;;8.45;1.75;;;;;;;9.51;100.00;99597.91;5068971;28;20045;-73
2023/12/21 09:48:09;;;;;;;7.25;1.70;;;;;;;9.54;100.00;99600.38;5069531;28;20554;-72
2023/12/21 09:50:39;;;;;;;6.88;1.90;;;;;;;9.57;100.00;99597.63;5089946;28;20069;-73
2023/12/21 09:53:06;;;;;;;10.73;3.25;;;;;;;9.58;100.00;99586.19;5077055;28;20040;-73
2023/12/21 09:55:37;;;;;;;5.63;1.60;;;;;;;9.62;100.00;99592.16;5074456;28;20037;-73
2023/12/21 09:58:05;;;;;;;7.22;1.55;;;;;;;9.66;100.00;99595.50;5068065;28;20071;-73
2023/12/21 10:00:33;;;;;;;8.27;1.73;;;;;;;9.67;100.00;99584.88;5069193;28;20117;-73
2023/12/21 10:03:00;;;;;;;8.82;2.10;;;;;;;9.71;100.00;99586.47;5061789;28;20071;-73
2023/12/21 10:05:27;;;;;;;8.00;1.75;;;;;;;9.73;100.00;99594.28;5085011;28;20567;-72
2023/12/21 10:07:54;;;;;;;7.63;2.05;;;;;;;9.76;100.00;99584.47;5084709;28;20049;-72
2023/12/21 10:10:22;;;;;;;4.45;1.20;;;;;;;9.79;100.00;99588.75;5069601;28;20094;-72
2023/12/21 10:12:49;;;;;;;6.03;1.65;;;;;;;9.82;100.00;99588.56;5067430;28;20045;-72
2023/12/21 10:15:20;;;;;;;7.80;1.35;;;;;;;9.88;100.00;99584.78;5069310;28;20044;-75
2023/12/21 10:17:47;;;;;;;7.78;1.38;;;;;;;9.94;100.00;99574.00;5069182;28;20089;-73
2023/12/21 10:20:14;;;;;;;10.90;1.63;;;;;;;9.97;100.00;99580.88;5082819;28;20059;-73
2023/12/21 10:22:43;;;;;;;9.70;1.50;;;;;;;9.98;100.00;99564.16;5064134;28;20047;-74
2023/12/21 10:25:12;;;;;;;7.90;1.60;;;;;;;10.01;100.00;99572.75;5057808;28;20048;-72
2023/12/21 10:27:40;;;;;;;4.63;1.17;;;;;;;10.02;100.00;99563.09;5067914;28;20040;-72
2023/12/21 10:30:08;;;;;;;8.35;1.40;;;;;;;10.03;100.00;99564.78;5067726;28;20036;-72
2023/12/21 10:32:55;;;;;;;12.70;1.98;;;;;;;10.05;100.00;99555.91;5082076;28;20128;-74
2023/12/21 10:35:25;;;;;;;4.40;1.17;;;;;;;10.09;100.00;99567.97;5062310;28;20056;-71
2023/12/21 10:37:53;;;;;;;7.15;1.55;;;;;;;10.13;100.00;99542.34;5080240;28;20053;-72
2023/12/21 10:40:24;;;;;;;7.25;1.30;;;;;;;10.15;100.00;99551.03;5083270;28;20504;-75
2023/12/21 10:42:51;;;;;;;6.22;1.42;;;;;;;10.13;100.00;99537.06;5067500;28;20119;-72
2023/12/21 10:45:19;;;;;;;10.70;1.67;;;;;;;10.15;100.00;99537.03;5068826;28;20055;-71
2023/12/21 10:48:08;;;;;;;6.43;1.58;;;;;;;10.17;100.00;99533.38;5068217;28;20532;-74
2023/12/21 10:50:37;;;;;;;7.15;1.50;;;;;;;10.21;100.00;99561.28;5066618;28;20051;-74
2023/12/21 10:53:10;;;;;;;6.72;1.20;;;;;;;10.26;100.00;99556.63;5083993;28;20055;-77
2023/12/21 10:55:40;;;;;;;6.20;1.23;;;;;;;10.32;100.00;99526.50;5065575;28;20028;-76
2023/12/21 10:58:08;;;;;;;7.63;1.13;;;;;;;10.40;100.00;99519.06;5066847;28;20085;-76
2023/12/21 11:00:36;;;;;;;4.80;0.88;;;;;;;10.47;100.00;99567.03;5067279;28;20047;-75
2023/12/21 11:03:09;;;;;;;3.30;0.90;;;;;;;10.57;100.00;99533.19;5067100;28;20560;-75
2023/12/21 11:05:40;;;;;;;4.28;0.90;;;;;;;10.63;100.00;99509.16;5067114;28;20542;-75
2023/12/21 11:08:07;;;;;;;3.00;0.90;;;;;;;10.68;100.00;99540.53;5050267;28;20051;-75
2023/12/21 11:10:35;;;;;;;5.38;1.25;;;;;;;10.67;100.00;99521.25;5046890;28;20140;-74
2023/12/21 11:13:03;;;;;;;6.68;1.33;;;;;;;10.69;100.00;99506.19;5058376;28;20544;-74
2023/12/21 11:15:30;;;;;;;4.50;0.88;;;;;;;10.70;100.00;99512.31;5066791;28;20497;-74
2023/12/21 11:18:11;;;;;;;4.18;0.82;;;;;;;10.72;100.00;99553.47;5082776;28;20056;-75
2023/12/21 11:21:02;;;;;;;2.40;0.80;;;;;;;10.74;100.00;99529.66;5068307;28;20048;-75
2023/12/21 11:23:31;;;;;;;3.53;0.60;;;;;;;10.73;100.00;99522.72;5069568;28;20048;-75
2023/12/21 11:25:59;;;;;;;5.68;1.00;;;;;;;10.71;100.00;99519.31;5060249;28;20033;-75
2023/12/21 11:28:32;;;;;;;2.17;0.55;;;;;;;10.67;100.00;99529.16;5047925;28;20098;-75